createdAt,value
2022-12-19T00:02:55.645Z,3.60
2022-12-19T00:05:59.133Z,3.60
2022-12-19T00:09:07.615Z,3.38
2022-12-19T00:12:19.026Z,3.60
2022-12-19T00:15:25.675Z,3.67
2022-12-19T00:18:29.256Z,3.38
2022-12-19T00:21:37.740Z,3.70
2022-12-19T00:24:40.872Z,3.55
2022-12-19T00:27:49.798Z,3.97
2022-12-19T00:30:50.723Z,3.10
2022-12-19T00:34:02.757Z,3.38
2022-12-19T00:37:07.888Z,3.55
2022-12-19T00:40:13.916Z,3.80
2022-12-19T00:43:23.464Z,3.60
2022-12-19T00:46:31.981Z,3.45
2022-12-19T00:49:35.520Z,3.75
2022-12-19T00:52:38.945Z,3.60
2022-12-19T00:55:41.575Z,3.47
2022-12-19T00:58:47.739Z,3.17
2022-12-19T01:01:56.466Z,3.40
2022-12-19T01:05:02.160Z,3.50
2022-12-19T01:08:03.106Z,3.35
2022-12-19T01:11:11.728Z,3.58
2022-12-19T01:14:38.255Z,3.38
2022-12-19T01:17:45.313Z,3.78
2022-12-19T01:20:47.810Z,3.80
2022-12-19T01:23:53.836Z,3.50
2022-12-19T01:27:02.385Z,3.63
2022-12-19T01:30:09.328Z,3.88
2022-12-19T01:33:17.922Z,3.38
2022-12-19T01:36:26.475Z,3.28
2022-12-19T01:39:29.984Z,3.38
2022-12-19T01:42:50.528Z,3.58
2022-12-19T01:46:24.077Z,3.60
2022-12-19T01:49:50.585Z,3.60
2022-12-19T01:53:18.116Z,3.50
2022-12-19T01:56:50.614Z,3.72
2022-12-19T02:00:12.158Z,3.40
2022-12-19T02:03:44.673Z,3.58
2022-12-19T02:07:16.075Z,3.63
2022-12-19T02:10:38.732Z,3.70
2022-12-19T02:17:36.327Z,3.17
2022-12-19T02:21:36.366Z,3.53
2022-12-19T02:25:36.403Z,3.20
2022-12-19T02:29:20.903Z,3.58
2022-12-19T02:33:12.472Z,3.67
2022-12-19T02:36:43.593Z,3.25
2022-12-19T02:43:30.569Z,3.58
2022-12-19T02:47:00.604Z,3.60
2022-12-19T02:50:30.645Z,3.25
2022-12-19T02:58:52.632Z,3.40
2022-12-19T03:01:56.511Z,3.63
2022-12-19T03:04:57.226Z,3.63
2022-12-19T03:08:03.258Z,3.28
2022-12-19T03:10:57.121Z,3.90
2022-12-19T03:42:20.837Z,4.47
2022-12-19T03:46:20.906Z,4.30
2022-12-19T03:50:02.908Z,4.20
2022-12-19T03:53:32.939Z,4.60
2022-12-19T03:57:14.980Z,4.50
2022-12-19T04:00:45.008Z,4.15
2022-12-19T04:04:15.033Z,4.45
2022-12-19T04:07:45.067Z,4.70
2022-12-19T04:11:03.113Z,4.93
2022-12-19T04:14:45.138Z,4.75
2022-12-19T04:18:03.166Z,4.45
2022-12-19T04:21:33.200Z,3.75
2022-12-19T04:25:15.238Z,4.13
2022-12-19T04:28:45.264Z,4.35
2022-12-19T04:32:03.289Z,4.15
2022-12-19T04:35:39.323Z,4.75
2022-12-19T04:39:21.353Z,4.35
2022-12-19T04:42:57.387Z,5.88
2022-12-19T04:46:21.423Z,7.80
2022-12-19T04:49:53.419Z,9.23
2022-12-19T04:53:21.497Z,9.63
2022-12-19T04:56:50.363Z,10.32
2022-12-19T05:00:10.710Z,9.48
2022-12-19T05:03:33.628Z,9.50
2022-12-19T05:06:59.585Z,10.00
2022-12-19T05:10:24.896Z,9.13
2022-12-19T05:13:39.659Z,8.38
2022-12-19T05:16:52.905Z,8.43
2022-12-19T05:20:15.714Z,8.75
2022-12-19T05:23:17.418Z,8.93
2022-12-19T05:26:21.769Z,8.45
2022-12-19T05:29:45.796Z,9.18
2022-12-19T05:32:51.511Z,9.20
2022-12-19T05:36:09.851Z,9.43
2022-12-19T05:39:33.878Z,7.80
2022-12-19T05:42:45.907Z,8.15
2022-12-19T05:45:44.034Z,7.53
2022-12-19T05:48:47.151Z,7.95
2022-12-19T05:52:16.005Z,8.43
2022-12-19T05:55:22.016Z,7.75
2022-12-19T05:58:41.274Z,8.15
2022-12-19T06:01:12.151Z,7.47
2022-12-19T06:04:12.084Z,6.97
2022-12-19T06:07:34.137Z,6.18
2022-12-19T06:10:52.162Z,5.03
2022-12-19T06:14:09.342Z,5.35
2022-12-19T06:17:22.745Z,4.72
2022-12-19T06:20:46.250Z,4.57
2022-12-19T06:24:40.363Z,4.40
2022-12-19T06:27:30.279Z,4.50
2022-12-19T06:30:34.342Z,4.03
2022-12-19T06:33:28.364Z,4.60
2022-12-19T06:36:42.027Z,3.90
2022-12-19T06:39:35.623Z,3.97
2022-12-19T06:42:36.358Z,4.18
2022-12-19T06:45:46.527Z,4.40
2022-12-19T06:48:36.496Z,4.10
2022-12-19T06:51:39.390Z,4.40
2022-12-19T06:55:42.520Z,4.45
2022-12-19T06:58:40.605Z,4.32
2022-12-19T07:01:37.503Z,4.40
2022-12-19T07:04:28.028Z,4.57
2022-12-19T07:07:22.365Z,4.85
2022-12-19T07:10:22.748Z,4.23
2022-12-19T07:13:18.264Z,4.40
2022-12-19T07:16:08.945Z,4.28
2022-12-19T07:18:55.312Z,4.22
2022-12-19T07:22:03.250Z,4.70
2022-12-19T07:25:24.786Z,4.28
2022-12-19T07:28:56.283Z,3.85
2022-12-19T07:32:30.196Z,5.07
2022-12-19T07:35:48.876Z,4.63
2022-12-19T08:11:13.621Z,4.45
2022-12-19T08:14:06.402Z,3.65
2022-12-19T08:17:42.332Z,3.90
2022-12-19T08:24:06.748Z,3.10
2022-12-19T08:27:14.928Z,4.38
2022-12-19T08:29:56.123Z,3.63
2022-12-19T08:37:32.112Z,3.95
2022-12-19T08:41:07.794Z,5.82
2022-12-19T08:45:09.538Z,3.75
2022-12-19T08:48:09.607Z,3.35
2022-12-19T09:05:58.507Z,3.42
2022-12-19T09:07:18.619Z,4.80
2022-12-19T09:17:55.570Z,3.63
2022-12-19T09:20:42.286Z,4.28
2022-12-19T09:23:34.480Z,3.92
2022-12-19T09:26:33.586Z,3.75
2022-12-19T09:42:28.513Z,4.25
2022-12-19T09:45:33.618Z,3.20
2022-12-19T09:48:25.852Z,2.88
2022-12-19T09:51:19.866Z,3.22
2022-12-19T09:54:14.444Z,3.67
2022-12-19T09:57:04.430Z,3.10
2022-12-19T09:59:55.849Z,2.95
2022-12-19T10:02:57.655Z,3.40
2022-12-19T10:06:55.834Z,295.85
2022-12-19T10:09:54.546Z,292.38
2022-12-19T10:12:45.398Z,182.52
2022-12-19T10:16:04.462Z,2.88
2022-12-19T10:19:35.736Z,3.03
2022-12-19T10:27:05.220Z,313.92
2022-12-19T10:30:22.413Z,315.27
2022-12-19T10:40:33.343Z,304.42
2022-12-19T10:43:40.878Z,305.73
2022-12-19T10:46:38.980Z,303.20
2022-12-19T10:49:30.661Z,304.10
2022-12-19T10:55:03.432Z,305.88
2022-12-19T10:57:52.191Z,308.70
2022-12-19T11:00:42.265Z,308.52
2022-12-19T11:03:36.302Z,310.33
2022-12-19T11:06:57.902Z,307.00
2022-12-19T11:10:08.126Z,309.42
2022-12-19T11:16:43.209Z,310.65
2022-12-19T11:21:13.923Z,2.60
2022-12-19T11:27:52.360Z,2.63
2022-12-19T11:29:32.070Z,2.80
2022-12-19T11:30:21.356Z,2.67
2022-12-19T11:30:48.857Z,2.60
2022-12-19T11:32:45.438Z,2.40
2022-12-19T11:46:53.911Z,2.70
2022-12-19T11:50:05.938Z,311.73
2022-12-19T12:31:51.387Z,287.13
2022-12-19T12:35:54.021Z,300.40
2022-12-19T12:38:24.612Z,304.38
2022-12-19T12:41:22.276Z,198.43
2022-12-19T12:44:32.988Z,2.92
2022-12-19T12:47:29.555Z,2.60
2022-12-19T12:50:23.124Z,2.72
2022-12-19T12:53:15.042Z,2.80
2022-12-19T12:55:57.560Z,2.70
2022-12-19T12:59:36.590Z,3.30
2022-12-19T13:02:36.378Z,2.60
2022-12-19T13:05:54.352Z,2.40
2022-12-19T13:08:59.060Z,2.60
2022-12-19T13:12:18.408Z,2.25
2022-12-19T13:14:55.635Z,2.88
2022-12-19T13:18:09.990Z,2.75
2022-12-19T13:20:47.423Z,3.00
2022-12-19T13:23:35.738Z,2.42
2022-12-19T13:26:22.031Z,2.38
2022-12-19T13:28:53.734Z,2.80
2022-12-19T13:31:25.669Z,3.05
2022-12-19T13:34:22.330Z,3.25
2022-12-19T13:39:59.746Z,3.00
2022-12-19T13:40:11.098Z,2.70
2022-12-19T14:28:21.001Z,2.63
2022-12-19T14:30:29.095Z,2.80
2022-12-19T14:33:44.567Z,2.83
2022-12-19T14:36:10.525Z,2.95
2022-12-19T14:39:26.850Z,2.67
2022-12-19T14:52:53.663Z,2.83
2022-12-19T14:54:10.682Z,2.63
2022-12-19T14:54:47.598Z,2.50
2022-12-19T14:57:00.751Z,2.70
2022-12-19T14:59:54.264Z,2.20
2022-12-19T15:02:51.320Z,2.63
2022-12-19T15:05:30.407Z,3.05
2022-12-19T15:09:17.834Z,2.60
2022-12-19T15:12:11.717Z,2.78
2022-12-19T15:15:36.473Z,2.13
2022-12-19T15:18:42.675Z,2.45
2022-12-19T15:21:34.208Z,2.60
2022-12-19T15:24:21.409Z,2.50
2022-12-19T15:27:14.379Z,3.35
2022-12-19T15:30:07.912Z,2.53
2022-12-19T15:32:56.522Z,2.60
2022-12-19T15:35:51.947Z,2.53
2022-12-19T15:38:42.593Z,2.50
2022-12-19T15:41:41.790Z,2.42
2022-12-19T15:44:38.087Z,2.83
2022-12-19T15:47:34.575Z,2.70
2022-12-19T15:50:33.903Z,2.50
2022-12-19T15:53:40.291Z,2.10
2022-12-19T15:56:45.088Z,2.50
2022-12-19T15:59:44.268Z,2.50
2022-12-19T16:03:20.493Z,2.40
2022-12-19T16:05:51.095Z,2.50
2022-12-19T16:08:44.210Z,2.33
2022-12-19T16:11:34.713Z,2.72
2022-12-19T16:14:36.736Z,2.28
2022-12-19T16:17:39.299Z,2.60
2022-12-19T16:20:35.922Z,2.17
2022-12-19T16:23:20.167Z,2.92
2022-12-19T16:26:04.283Z,2.60
2022-12-19T16:29:07.039Z,2.65
2022-12-19T16:32:13.050Z,2.70
2022-12-19T16:35:13.074Z,2.50
2022-12-19T16:38:19.101Z,2.67
2022-12-19T16:41:29.508Z,2.58
2022-12-19T16:44:31.168Z,2.42
2022-12-19T16:47:37.199Z,2.80
2022-12-19T16:50:45.125Z,2.97
2022-12-19T16:53:37.258Z,2.60
2022-12-19T16:56:40.336Z,2.90
2022-12-19T16:59:33.615Z,2.67
2022-12-19T17:02:45.270Z,2.60
2022-12-19T17:05:39.255Z,2.83
2022-12-19T17:08:36.005Z,2.80
2022-12-19T17:11:26.677Z,2.53
2022-12-19T17:14:24.177Z,2.83
2022-12-19T17:17:18.204Z,2.70
2022-12-19T17:20:15.397Z,2.50
2022-12-19T17:23:06.270Z,3.08
2022-12-19T17:25:49.554Z,2.58
2022-12-19T17:28:49.068Z,2.33
2022-12-19T17:31:45.496Z,2.80
2022-12-19T17:34:48.376Z,2.67
2022-12-19T17:37:44.127Z,2.75
2022-12-19T17:40:37.141Z,2.60
2022-12-19T17:43:45.832Z,2.20
2022-12-19T17:46:42.128Z,2.47
2022-12-19T17:49:42.524Z,2.10
2022-12-19T17:52:33.660Z,2.28
2022-12-19T17:58:12.605Z,2.38
2022-12-19T18:01:00.683Z,2.55
2022-12-19T18:03:52.752Z,2.20
2022-12-19T18:06:45.644Z,2.45
2022-12-19T18:09:33.805Z,2.50
2022-12-19T18:12:23.416Z,2.33
2022-12-19T18:15:10.434Z,2.63
2022-12-19T18:18:03.559Z,2.30
2022-12-19T18:20:52.509Z,2.50
2022-12-19T18:23:39.931Z,2.45
2022-12-19T18:26:24.858Z,2.28
2022-12-19T18:29:09.983Z,2.70
2022-12-19T18:31:58.000Z,2.35
2022-12-19T18:34:43.497Z,2.40
2022-12-19T18:37:24.844Z,2.50
2022-12-19T18:40:14.344Z,2.20
2022-12-19T18:42:56.946Z,2.65
2022-12-19T18:45:58.186Z,2.00
2022-12-19T18:49:07.054Z,2.42
2022-12-19T18:52:13.954Z,2.20
2022-12-19T18:55:22.219Z,2.60
2022-12-19T18:58:50.014Z,2.38
2022-12-19T19:02:26.355Z,2.33
2022-12-19T19:06:08.261Z,2.58
2022-12-19T19:09:43.267Z,2.33
2022-12-19T19:20:26.195Z,1.88
2022-12-19T19:23:50.224Z,1.92
2022-12-19T19:27:19.110Z,2.08
2022-12-19T19:34:32.311Z,1.90
2022-12-19T19:37:56.353Z,1.80
2022-12-19T19:41:20.375Z,1.85
2022-12-19T20:12:38.629Z,2.00
2022-12-19T20:16:08.758Z,1.77
2022-12-19T20:31:06.789Z,1.90
2022-12-19T20:34:32.815Z,1.70
2022-12-19T20:38:00.887Z,1.77
2022-12-19T20:41:26.871Z,1.80
2022-12-19T20:44:48.799Z,1.55
2022-12-19T20:48:18.868Z,2.00
2022-12-19T20:51:42.858Z,1.70
2022-12-19T20:55:06.885Z,1.90
2022-12-19T20:58:36.916Z,1.88
2022-12-19T21:02:01.163Z,1.52
2022-12-19T21:05:36.978Z,1.73
2022-12-19T21:09:13.013Z,1.50
2022-12-19T21:12:33.128Z,1.77
2022-12-19T21:16:01.101Z,2.08
2022-12-19T21:19:33.187Z,1.58
2022-12-19T21:23:07.143Z,1.88
2022-12-19T21:26:43.160Z,1.63
2022-12-19T21:30:07.189Z,1.42
2022-12-19T21:33:37.221Z,1.80
2022-12-19T21:37:01.251Z,1.55
2022-12-19T21:40:33.362Z,1.70
2022-12-19T21:44:03.396Z,1.83
2022-12-19T21:47:31.342Z,1.70
2022-12-19T23:27:50.252Z,1.65
